Time;durP1;ratioP1;P1;durP2;ratioP2;P2;SDS_P1;SDS_P2;PMS_P1;PMS_P2;Temp;Humidity;BMP_temperature;BMP_pressure;BME280_temperature;BME280_humidity;BME280_pressure;Samples;Min_cycle;Max_cycle;Signal;HPM_P1;HPM_P2
2022/10/14 00:01:08;;;;;;;4.90;2.90;;;13.60;71.90;;;;;;5044720;28;20090;-58
2022/10/14 00:03:35;;;;;;;5.50;3.25;;;13.60;72.00;;;;;;5043125;28;20488;-57
2022/10/14 00:06:11;;;;;;;4.75;3.30;;;13.60;72.10;;;;;;5046367;28;20048;-59
2022/10/14 00:08:36;;;;;;;5.22;3.63;;;13.60;72.00;;;;;;5043499;28;20094;-57
2022/10/14 00:11:04;;;;;;;4.60;3.22;;;13.60;72.00;;;;;;5048119;28;20032;-60
2022/10/14 00:13:30;;;;;;;4.40;2.95;;;13.60;72.00;;;;;;5046864;28;20102;-59
2022/10/14 00:15:55;;;;;;;4.40;3.20;;;13.60;72.00;;;;;;5044749;28;20024;-58
2022/10/14 00:18:21;;;;;;;4.97;3.28;;;13.60;72.10;;;;;;5046110;28;20037;-58
2022/10/14 00:20:54;;;;;;;4.50;2.90;;;13.60;72.00;;;;;;5029953;28;20037;-58
2022/10/14 00:23:20;;;;;;;5.25;3.20;;;13.60;72.00;;;;;;5043076;28;20021;-60
2022/10/14 00:25:46;;;;;;;4.72;3.00;;;13.60;72.10;;;;;;5050181;28;20429;-56
2022/10/14 00:28:11;;;;;;;4.75;3.22;;;13.60;72.10;;;;;;5047281;28;20017;-58
2022/10/14 00:30:37;;;;;;;4.32;3.00;;;13.60;72.90;;;;;;5047453;28;20033;-57
2022/10/14 00:33:03;;;;;;;4.38;3.30;;;13.60;72.30;;;;;;5045549;28;20119;-58
2022/10/14 00:35:30;;;;;;;5.88;3.50;;;13.60;72.30;;;;;;5040090;28;20025;-57
2022/10/14 00:37:57;;;;;;;5.78;3.28;;;13.60;72.30;;;;;;5047743;28;20037;-58
2022/10/14 00:40:22;;;;;;;5.00;3.40;;;13.60;72.20;;;;;;5048051;28;20033;-58
2022/10/14 00:42:48;;;;;;;5.93;3.70;;;13.60;72.30;;;;;;5030623;28;20029;-57
2022/10/14 00:45:19;;;;;;;5.15;3.03;;;13.60;72.50;;;;;;5047678;28;20067;-58
2022/10/14 00:47:46;;;;;;;3.90;2.78;;;13.60;72.50;;;;;;5048324;28;20025;-58
2022/10/14 00:50:13;;;;;;;5.32;3.42;;;13.60;72.50;;;;;;5045749;28;20460;-57
2022/10/14 00:52:39;;;;;;;4.30;2.80;;;13.60;72.50;;;;;;5039652;28;20082;-59
2022/10/14 00:55:11;;;;;;;5.40;3.42;;;13.60;72.50;;;;;;5054158;28;20017;-60
2022/10/14 00:57:37;;;;;;;5.35;3.90;;;13.50;72.60;;;;;;5056642;28;20020;-58
2022/10/14 01:00:11;;;;;;;6.18;3.42;;;13.60;72.70;;;;;;5052205;28;20028;-57
2022/10/14 01:02:37;;;;;;;5.85;3.55;;;13.60;72.80;;;;;;5055161;28;20024;-57
2022/10/14 01:05:04;;;;;;;5.70;3.30;;;13.60;72.70;;;;;;5050830;28;20025;-58
2022/10/14 01:07:45;;;;;;;5.85;3.90;;;13.50;72.80;;;;;;5050609;28;20017;-58
2022/10/14 01:10:31;;;;;;;4.47;3.35;;;13.50;72.80;;;;;;5049836;28;20025;-57
2022/10/14 01:13:28;;;;;;;4.28;3.10;;;13.50;72.90;;;;;;5046493;28;20116;-57
2022/10/14 01:16:13;;;;;;;4.32;3.42;;;13.50;72.90;;;;;;5034439;28;20040;-57
2022/10/14 01:19:07;;;;;;;3.75;2.80;;;13.50;73.00;;;;;;5047761;28;20404;-59
2022/10/14 01:21:47;;;;;;;4.50;2.90;;;13.50;73.00;;;;;;5050833;28;20044;-57
2022/10/14 01:24:40;;;;;;;4.72;3.10;;;13.50;73.00;;;;;;5051982;28;20021;-58
2022/10/14 01:27:44;;;;;;;4.97;3.08;;;13.50;73.10;;;;;;5051035;28;20040;-57
2022/10/14 01:30:18;;;;;;;5.63;3.45;;;13.50;73.10;;;;;;5050653;28;20025;-57
2022/10/14 01:32:46;;;;;;;5.55;3.83;;;13.50;73.10;;;;;;5053891;28;20037;-58
2022/10/14 01:35:18;;;;;;;5.50;3.63;;;13.40;73.10;;;;;;5053471;28;20025;-58
2022/10/14 01:37:58;;;;;;;4.40;3.38;;;13.40;73.50;;;;;;5053817;28;20488;-58
2022/10/14 01:40:31;;;;;;;4.05;3.25;;;13.40;73.50;;;;;;5053481;28;20037;-57
2022/10/14 01:42:59;;;;;;;5.78;3.55;;;13.40;73.60;;;;;;5048544;28;20040;-58
2022/10/14 01:45:27;;;;;;;4.57;2.95;;;13.40;73.70;;;;;;5051831;28;20017;-57
2022/10/14 01:47:54;;;;;;;4.47;3.10;;;13.40;73.50;;;;;;5052767;28;20448;-58
2022/10/14 01:50:23;;;;;;;4.85;3.40;;;13.40;73.50;;;;;;5051592;28;20025;-57
2022/10/14 01:53:11;;;;;;;6.25;3.55;;;13.40;73.50;;;;;;5053890;28;20468;-60
2022/10/14 01:55:41;;;;;;;5.13;3.45;;;13.40;73.50;;;;;;5052328;28;20040;-58
2022/10/14 01:58:09;;;;;;;4.57;3.00;;;13.40;73.60;;;;;;5051885;28;20124;-59
2022/10/14 02:00:35;;;;;;;5.07;3.20;;;13.40;73.60;;;;;;5049997;28;20120;-57
2022/10/14 02:03:01;;;;;;;4.68;3.30;;;13.40;73.60;;;;;;5054976;28;20109;-58
2022/10/14 02:05:38;;;;;;;5.30;4.03;;;13.40;73.60;;;;;;5052733;28;20151;-57
2022/10/14 02:08:17;;;;;;;5.47;3.42;;;13.40;73.70;;;;;;5054771;28;20559;-59
2022/10/14 02:10:48;;;;;;;3.90;3.30;;;13.40;73.80;;;;;;5052951;28;20029;-58
2022/10/14 02:13:33;;;;;;;;;;;13.40;73.80;;;;;;5053534;28;20029;-59
2022/10/14 02:16:18;;;;;;;3.53;2.80;;;13.40;73.90;;;;;;5052681;28;19908;-58
2022/10/14 02:18:50;;;;;;;6.07;3.38;;;13.40;73.70;;;;;;5046329;28;20074;-59
2022/10/14 02:21:33;;;;;;;5.85;3.22;;;13.40;73.80;;;;;;5051475;28;20522;-57
2022/10/14 02:24:21;;;;;;;5.25;3.40;;;13.40;73.90;;;;;;5052290;28;20060;-56
2022/10/14 02:26:50;;;;;;;4.22;3.20;;;13.40;74.00;;;;;;5050249;28;20021;-58
2022/10/14 02:29:18;;;;;;;5.22;3.38;;;13.40;74.10;;;;;;5051174;28;20033;-58
2022/10/14 02:31:45;;;;;;;4.18;3.10;;;13.40;74.20;;;;;;5052004;28;20129;-58
2022/10/14 02:34:13;;;;;;;6.63;3.08;;;13.40;74.10;;;;;;5048916;28;20090;-59
2022/10/14 02:36:41;;;;;;;3.30;2.75;;;13.40;74.20;;;;;;5052027;28;20104;-58
2022/10/14 02:39:10;;;;;;;3.97;2.90;;;13.40;74.20;;;;;;5051810;28;20017;-57
2022/10/14 02:41:36;;;;;;;5.63;3.10;;;13.40;74.20;;;;;;5051384;28;20065;-57
2022/10/14 02:44:04;;;;;;;3.95;2.72;;;13.40;74.20;;;;;;5051693;28;20083;-58
2022/10/14 02:46:31;;;;;;;3.85;2.67;;;13.40;74.60;;;;;;5052039;28;20032;-59
2022/10/14 02:48:57;;;;;;;3.67;2.60;;;13.40;73.80;;;;;;5051493;28;20107;-58
2022/10/14 02:51:23;;;;;;;4.13;2.90;;;13.40;73.80;;;;;;5052465;28;20029;-58
2022/10/14 02:53:48;;;;;;;5.82;3.55;;;13.40;73.60;;;;;;5050278;28;20037;-59
2022/10/14 02:56:15;;;;;;;4.45;3.33;;;13.40;73.50;;;;;;5052575;28;20104;-58
2022/10/14 02:58:41;;;;;;;3.78;2.80;;;13.40;73.50;;;;;;5050969;28;20037;-57
2022/10/14 03:01:07;;;;;;;5.68;3.10;;;13.40;73.60;;;;;;5052361;28;20116;-57
2022/10/14 03:03:32;;;;;;;4.22;3.08;;;13.40;73.60;;;;;;5051610;28;20074;-57
2022/10/14 03:05:58;;;;;;;5.68;3.30;;;13.40;73.70;;;;;;5050576;28;20068;-59
2022/10/14 03:08:23;;;;;;;3.55;2.80;;;13.30;73.70;;;;;;5057158;28;20033;-60
2022/10/14 03:10:49;;;;;;;3.53;2.70;;;13.30;73.70;;;;;;5042043;28;20029;-57
2022/10/14 03:13:15;;;;;;;3.65;2.83;;;13.30;73.60;;;;;;5054114;28;20029;-60
2022/10/14 03:15:41;;;;;;;3.60;2.75;;;13.30;73.60;;;;;;5051192;28;20033;-58
2022/10/14 03:18:06;;;;;;;3.42;2.80;;;13.30;73.60;;;;;;5051340;28;20119;-57
2022/10/14 03:20:32;;;;;;;3.72;3.03;;;13.30;73.50;;;;;;5050258;28;20025;-57
2022/10/14 03:22:57;;;;;;;3.65;2.70;;;13.30;73.60;;;;;;5050886;28;20037;-58
2022/10/14 03:25:23;;;;;;;2.80;2.50;;;13.20;73.50;;;;;;5049840;28;20028;-56
2022/10/14 03:27:49;;;;;;;3.50;2.45;;;13.20;73.50;;;;;;5051074;28;20475;-58
2022/10/14 03:30:15;;;;;;;4.15;2.90;;;13.20;73.40;;;;;;5049698;28;20071;-57
2022/10/14 03:32:41;;;;;;;3.60;2.65;;;13.20;73.30;;;;;;5050810;28;20052;-58
2022/10/14 03:35:07;;;;;;;5.55;2.80;;;13.20;73.30;;;;;;5050675;28;20045;-58
2022/10/14 03:37:32;;;;;;;3.50;3.00;;;13.10;73.30;;;;;;5051448;28;20453;-57
2022/10/14 03:39:58;;;;;;;3.63;2.53;;;13.10;73.20;;;;;;5050189;28;20111;-58
2022/10/14 03:42:24;;;;;;;3.58;2.85;;;13.10;73.10;;;;;;5050311;28;20039;-57
2022/10/14 03:44:50;;;;;;;3.38;2.40;;;13.10;73.10;;;;;;5051022;28;20025;-57
2022/10/14 03:47:15;;;;;;;3.67;2.90;;;13.10;72.90;;;;;;5051684;28;20013;-57
2022/10/14 03:49:41;;;;;;;5.07;3.05;;;13.10;72.70;;;;;;5052726;28;20082;-57
2022/10/14 03:52:06;;;;;;;3.92;3.05;;;13.00;72.60;;;;;;5049672;28;20076;-58
2022/10/14 03:54:32;;;;;;;4.03;3.30;;;13.00;72.50;;;;;;5049158;28;20035;-58
2022/10/14 03:56:58;;;;;;;3.63;2.83;;;13.00;72.50;;;;;;5048808;28;20025;-56
2022/10/14 03:59:24;;;;;;;5.18;3.50;;;13.00;72.40;;;;;;5049745;28;20439;-59
2022/10/14 04:01:49;;;;;;;4.55;3.38;;;13.00;72.40;;;;;;5052341;28;20029;-57
2022/10/14 04:04:15;;;;;;;6.03;3.60;;;12.90;72.20;;;;;;5048894;28;20475;-58
2022/10/14 04:06:40;;;;;;;5.85;3.17;;;12.90;72.90;;;;;;5049707;28;20017;-58
2022/10/14 04:09:06;;;;;;;4.75;3.55;;;12.90;72.10;;;;;;5050325;28;20025;-58
2022/10/14 04:11:32;;;;;;;4.20;3.20;;;12.80;72.00;;;;;;5049855;28;21005;-57
2022/10/14 04:13:58;;;;;;;4.45;3.40;;;12.80;72.20;;;;;;5055205;28;20039;-59
2022/10/14 04:16:24;;;;;;;6.68;3.70;;;12.80;72.10;;;;;;5049085;28;20088;-59
2022/10/14 04:18:50;;;;;;;3.58;2.67;;;12.70;72.20;;;;;;5052952;28;20339;-58
2022/10/14 04:21:15;;;;;;;4.10;3.00;;;12.70;72.30;;;;;;5051567;28;20388;-59
2022/10/14 04:23:41;;;;;;;3.78;2.67;;;12.70;72.30;;;;;;5050929;28;20027;-58
2022/10/14 04:26:08;;;;;;;3.42;2.97;;;12.70;72.50;;;;;;5049434;28;20025;-58
2022/10/14 04:28:35;;;;;;;3.88;3.00;;;12.70;72.40;;;;;;5058771;28;20484;-57
2022/10/14 04:31:01;;;;;;;4.50;3.05;;;12.70;72.30;;;;;;5051887;28;20063;-59
2022/10/14 04:33:27;;;;;;;3.00;2.70;;;12.70;72.30;;;;;;5038144;28;20025;-57
2022/10/14 04:36:00;;;;;;;3.05;2.63;;;12.70;72.40;;;;;;5020230;28;20053;-57
2022/10/14 04:38:27;;;;;;;3.15;2.47;;;12.70;72.40;;;;;;5031683;28;20120;-57
2022/10/14 04:40:52;;;;;;;3.95;2.83;;;12.60;72.20;;;;;;5033973;28;20029;-59
2022/10/14 04:43:18;;;;;;;3.38;2.80;;;12.70;72.30;;;;;;5025932;28;20030;-58
2022/10/14 04:45:44;;;;;;;2.88;2.47;;;12.70;72.30;;;;;;5028310;28;20503;-58
2022/10/14 04:48:10;;;;;;;2.95;2.40;;;12.70;72.40;;;;;;5035725;28;20037;-58
2022/10/14 04:50:36;;;;;;;3.38;2.60;;;12.70;72.30;;;;;;5037737;28;20033;-57
2022/10/14 04:53:01;;;;;;;3.33;2.60;;;12.70;72.30;;;;;;5035355;28;20102;-58
2022/10/14 04:55:27;;;;;;;4.13;2.63;;;12.80;72.30;;;;;;5036690;28;20060;-58
2022/10/14 04:57:53;;;;;;;4.32;3.15;;;12.80;72.30;;;;;;5034744;28;20017;-57
2022/10/14 05:00:18;;;;;;;4.10;3.10;;;12.80;72.20;;;;;;5032787;28;20037;-57
2022/10/14 05:02:44;;;;;;;3.22;2.60;;;12.80;72.10;;;;;;5032146;28;20021;-58
2022/10/14 05:05:10;;;;;;;3.60;2.70;;;12.80;71.90;;;;;;5035585;28;20033;-59
2022/10/14 05:07:35;;;;;;;3.10;2.70;;;12.90;71.90;;;;;;5034695;28;20032;-58
2022/10/14 05:10:03;;;;;;;4.07;2.83;;;12.90;71.80;;;;;;5033874;28;20052;-57
2022/10/14 05:12:29;;;;;;;3.53;2.85;;;12.90;71.70;;;;;;5034103;28;20152;-57
2022/10/14 05:14:55;;;;;;;2.80;2.55;;;12.90;71.70;;;;;;5033586;28;20080;-57
2022/10/14 05:17:21;;;;;;;2.88;2.33;;;12.90;71.60;;;;;;5033290;28;20426;-58
2022/10/14 05:19:47;;;;;;;3.55;2.45;;;13.00;71.60;;;;;;5035650;28;20140;-59
2022/10/14 05:22:12;;;;;;;3.55;2.70;;;13.00;71.60;;;;;;5036569;28;20041;-58
2022/10/14 05:24:38;;;;;;;3.10;2.80;;;13.00;71.60;;;;;;5031918;28;20041;-58
2022/10/14 05:27:03;;;;;;;3.78;2.80;;;13.00;71.50;;;;;;5033636;28;20041;-58
2022/10/14 05:29:29;;;;;;;3.95;2.67;;;13.10;71.40;;;;;;5033224;28;20514;-57
2022/10/14 05:31:55;;;;;;;4.10;2.58;;;13.10;71.40;;;;;;5047320;28;20055;-58
2022/10/14 05:34:21;;;;;;;3.45;2.80;;;13.20;71.20;;;;;;5052549;28;20031;-59
2022/10/14 05:36:47;;;;;;;4.05;2.60;;;13.20;71.90;;;;;;5052108;28;20055;-59
2022/10/14 05:39:12;;;;;;;2.80;2.40;;;13.20;71.20;;;;;;5053348;28;20025;-57
2022/10/14 05:41:38;;;;;;;3.05;2.67;;;13.30;71.30;;;;;;5054916;28;20033;-58
2022/10/14 05:44:05;;;;;;;3.67;2.75;;;13.30;71.30;;;;;;5055785;28;20463;-59
2022/10/14 05:46:30;;;;;;;2.65;2.40;;;13.30;71.20;;;;;;5054862;28;20111;-58
2022/10/14 05:48:57;;;;;;;4.03;2.78;;;13.40;71.20;;;;;;5052059;28;20117;-58
2022/10/14 05:51:22;;;;;;;2.78;2.50;;;13.40;71.10;;;;;;5053135;28;20701;-58
2022/10/14 05:53:48;;;;;;;3.78;2.70;;;13.50;71.00;;;;;;5052715;28;20074;-58
2022/10/14 05:56:14;;;;;;;3.10;2.40;;;13.50;71.00;;;;;;5053417;28;20037;-57
2022/10/14 05:58:40;;;;;;;3.13;2.47;;;13.50;70.90;;;;;;5048565;28;20079;-58
2022/10/14 06:01:09;;;;;;;4.60;2.35;;;13.60;70.80;;;;;;5057606;28;20033;-57
2022/10/14 06:03:35;;;;;;;3.78;2.40;;;13.60;70.70;;;;;;5048197;28;20017;-59
2022/10/14 06:06:01;;;;;;;2.10;1.90;;;13.70;70.60;;;;;;5049404;28;20437;-57
2022/10/14 06:08:27;;;;;;;3.97;2.42;;;13.70;70.50;;;;;;5050879;28;20028;-59
2022/10/14 06:10:54;;;;;;;2.75;2.40;;;13.70;70.40;;;;;;5044597;28;20025;-58
2022/10/14 06:13:20;;;;;;;3.83;2.67;;;13.80;70.30;;;;;;5041496;28;20037;-58
2022/10/14 06:15:46;;;;;;;4.10;2.47;;;13.90;70.30;;;;;;5046787;28;20029;-57
2022/10/14 06:18:12;;;;;;;3.20;2.63;;;13.90;70.30;;;;;;5048087;28;20029;-57
2022/10/14 06:20:38;;;;;;;3.75;2.60;;;13.90;70.20;;;;;;5043854;28;20021;-58
2022/10/14 06:23:03;;;;;;;2.67;2.30;;;14.00;70.00;;;;;;5050132;28;20029;-59
2022/10/14 06:25:29;;;;;;;2.90;2.28;;;14.00;69.70;;;;;;5045763;28;20040;-57
2022/10/14 06:28:01;;;;;;;1.90;1.80;;;14.00;69.60;;;;;;5049975;28;20028;-58
2022/10/14 06:30:26;;;;;;;;;;;14.00;69.60;;;;;;5041769;28;20425;-59
2022/10/14 06:32:53;;;;;;;2.20;2.00;;;14.00;69.60;;;;;;5041096;28;19923;-59
2022/10/14 06:35:18;;;;;;;2.00;1.80;;;14.10;69.50;;;;;;5042465;28;20030;-59
2022/10/14 06:37:45;;;;;;;2.08;1.77;;;14.10;69.30;;;;;;5036629;28;20029;-59
2022/10/14 06:40:11;;;;;;;2.10;1.88;;;14.10;69.20;;;;;;5043385;28;20174;-57
2022/10/14 06:42:37;;;;;;;1.30;1.20;;;14.20;69.00;;;;;;5036234;28;20025;-58
2022/10/14 06:45:04;;;;;;;1.92;1.70;;;14.30;68.80;;;;;;5034752;28;20083;-60
2022/10/14 06:47:31;;;;;;;1.90;1.80;;;14.30;68.50;;;;;;5034410;28;20024;-58
2022/10/14 06:49:57;;;;;;;1.80;1.70;;;14.30;68.30;;;;;;5027284;28;20115;-58
2022/10/14 06:52:23;;;;;;;1.60;1.50;;;14.30;68.20;;;;;;5030794;28;21786;-59
2022/10/14 06:54:49;;;;;;;1.88;1.55;;;14.30;68.00;;;;;;5026283;28;20114;-58
2022/10/14 06:57:14;;;;;;;1.60;1.50;;;14.30;67.90;;;;;;5024526;28;20033;-60
2022/10/14 06:59:40;;;;;;;1.60;1.45;;;14.40;67.70;;;;;;5029790;28;20071;-60
2022/10/14 07:02:06;;;;;;;1.80;1.70;;;14.40;67.70;;;;;;5028870;28;20553;-58
2022/10/14 07:04:31;;;;;;;1.70;1.40;;;14.40;67.50;;;;;;5030366;28;20024;-59
2022/10/14 07:06:57;;;;;;;1.83;1.48;;;14.40;67.40;;;;;;5033815;28;20850;-60
2022/10/14 07:09:23;;;;;;;1.55;1.45;;;14.30;67.70;;;;;;5029057;28;20025;-60
2022/10/14 07:11:49;;;;;;;1.50;1.40;;;14.30;67.20;;;;;;5024009;28;20079;-59
2022/10/14 07:14:16;;;;;;;1.58;1.48;;;14.30;67.20;;;;;;5025760;28;20112;-59
2022/10/14 07:16:43;;;;;;;1.60;1.40;;;14.30;67.80;;;;;;5028293;28;20048;-60
2022/10/14 07:19:08;;;;;;;1.52;1.42;;;14.30;67.00;;;;;;5023875;28;20041;-61
2022/10/14 07:21:34;;;;;;;1.73;1.63;;;14.30;66.80;;;;;;5019748;28;20060;-60
2022/10/14 07:24:00;;;;;;;1.50;1.40;;;14.20;66.60;;;;;;5015108;28;20039;-60
2022/10/14 07:26:25;;;;;;;1.55;1.45;;;14.20;66.50;;;;;;5021671;28;20140;-60
2022/10/14 07:28:51;;;;;;;1.60;1.50;;;14.20;66.40;;;;;;5012075;28;20551;-61
2022/10/14 07:31:16;;;;;;;1.73;1.63;;;14.20;66.30;;;;;;5010475;28;20055;-60
2022/10/14 07:33:42;;;;;;;1.42;1.27;;;14.20;66.20;;;;;;5019364;28;21668;-60
2022/10/14 07:36:11;;;;;;;1.38;1.27;;;14.20;66.10;;;;;;5018952;28;20111;-61
2022/10/14 07:38:37;;;;;;;1.58;1.38;;;14.10;66.60;;;;;;5019606;28;20124;-59
2022/10/14 07:41:15;;;;;;;1.30;1.20;;;14.10;65.70;;;;;;5028181;28;20464;-60
2022/10/14 07:43:41;;;;;;;1.52;1.42;;;14.10;65.60;;;;;;5023914;28;20025;-59
2022/10/14 07:46:07;;;;;;;1.90;1.67;;;14.10;65.70;;;;;;5028064;28;20085;-59
2022/10/14 07:48:34;;;;;;;1.42;1.33;;;14.10;65.60;;;;;;5023111;28;20022;-61
2022/10/14 07:50:59;;;;;;;1.40;1.30;;;14.10;65.60;;;;;;5029032;28;20043;-60
2022/10/14 07:53:26;;;;;;;1.50;1.40;;;14.10;65.50;;;;;;5032605;28;20021;-59
2022/10/14 07:55:52;;;;;;;1.50;1.38;;;14.10;65.30;;;;;;5024943;28;20052;-58
2022/10/14 07:58:23;;;;;;;1.30;1.20;;;14.10;65.30;;;;;;5028642;28;20032;-59
2022/10/14 08:00:49;;;;;;;1.70;1.23;;;14.10;65.20;;;;;;5025586;28;20144;-60
2022/10/14 08:03:16;;;;;;;1.45;1.35;;;14.10;65.10;;;;;;5017229;28;20036;-59
2022/10/14 08:05:42;;;;;;;0.95;0.93;;;14.10;65.10;;;;;;5017728;28;20033;-60
2022/10/14 08:08:08;;;;;;;1.20;1.10;;;14.10;65.10;;;;;;5019765;28;20052;-60
2022/10/14 08:10:34;;;;;;;1.23;1.15;;;14.10;65.00;;;;;;5015277;28;20029;-60
2022/10/14 08:13:01;;;;;;;1.23;1.13;;;14.10;64.90;;;;;;5017138;28;20592;-60
2022/10/14 08:15:28;;;;;;;1.35;1.10;;;14.10;64.80;;;;;;5023085;28;20474;-60
2022/10/14 08:17:55;;;;;;;1.52;1.42;;;14.10;64.60;;;;;;5019813;28;20033;-58
2022/10/14 08:20:20;;;;;;;1.38;1.27;;;14.10;64.40;;;;;;5024105;28;20042;-61
2022/10/14 08:22:46;;;;;;;1.48;1.35;;;14.10;64.30;;;;;;5018186;28;20067;-58
2022/10/14 08:25:12;;;;;;;1.10;1.10;;;14.10;64.30;;;;;;5016672;28;20029;-60
2022/10/14 08:27:37;;;;;;;1.40;1.30;;;14.10;64.10;;;;;;5023480;28;21655;-59
2022/10/14 08:30:04;;;;;;;1.42;1.27;;;14.10;64.20;;;;;;5022872;28;20335;-60
2022/10/14 08:32:30;;;;;;;1.75;1.35;;;14.10;64.00;;;;;;5012655;28;20057;-58
2022/10/14 08:34:55;;;;;;;1.13;1.13;;;14.10;63.90;;;;;;5011684;28;20037;-58
2022/10/14 08:37:21;;;;;;;1.20;1.20;;;14.10;64.10;;;;;;5003821;28;20064;-60
2022/10/14 08:39:47;;;;;;;1.40;1.30;;;14.10;63.90;;;;;;4991214;28;20087;-61
2022/10/14 08:42:39;;;;;;;1.17;1.17;;;14.10;64.70;;;;;;4999145;28;20446;-59
2022/10/14 08:45:18;;;;;;;1.42;1.33;;;14.10;63.90;;;;;;4989988;28;21336;-60
2022/10/14 08:47:45;;;;;;;1.38;1.33;;;14.10;63.90;;;;;;4999413;28;20115;-59
2022/10/14 08:50:31;;;;;;;1.02;1.02;;;14.10;63.80;;;;;;5005704;28;20029;-60
2022/10/14 08:53:13;;;;;;;2.15;1.48;;;14.10;63.60;;;;;;4988316;28;20040;-62
2022/10/14 08:55:45;;;;;;;1.25;1.15;;;14.10;63.60;;;;;;4999720;28;20026;-59
2022/10/14 08:58:16;;;;;;;1.38;1.27;;;14.10;63.70;;;;;;5002022;28;20083;-59
2022/10/14 09:00:46;;;;;;;1.58;1.48;;;14.10;63.80;;;;;;4991476;28;20052;-60
2022/10/14 09:03:32;;;;;;;1.48;1.30;;;14.10;63.60;;;;;;4993489;28;20026;-61
2022/10/14 09:06:04;;;;;;;1.27;1.17;;;14.10;63.40;;;;;;4992059;28;20029;-59
2022/10/14 09:08:41;;;;;;;1.15;1.05;;;14.10;63.50;;;;;;4993380;28;20038;-59
2022/10/14 09:11:12;;;;;;;2.30;1.55;;;14.10;63.60;;;;;;4996002;28;20036;-60
2022/10/14 09:13:41;;;;;;;1.75;1.30;;;14.10;63.70;;;;;;5001608;28;20776;-60
2022/10/14 09:16:31;;;;;;;1.95;1.10;;;14.10;63.50;;;;;;5004666;28;20075;-59
2022/10/14 09:18:59;;;;;;;1.63;1.52;;;14.20;63.40;;;;;;5000008;28;20145;-58
2022/10/14 09:21:30;;;;;;;1.45;1.35;;;14.20;63.40;;;;;;5001818;28;20439;-60
2022/10/14 09:24:02;;;;;;;1.65;1.55;;;14.10;63.10;;;;;;5000557;28;20136;-58
2022/10/14 09:26:39;;;;;;;1.95;1.23;;;14.10;63.10;;;;;;4995011;28;20511;-59
2022/10/14 09:29:19;;;;;;;1.50;1.40;;;14.00;63.00;;;;;;5001810;28;20055;-60
2022/10/14 09:31:44;;;;;;;1.40;1.30;;;14.00;63.20;;;;;;5013799;28;21398;-60
2022/10/14 09:34:18;;;;;;;2.15;1.27;;;14.00;63.10;;;;;;5021624;28;20033;-61
2022/10/14 09:36:45;;;;;;;1.25;1.20;;;14.00;63.10;;;;;;5022316;28;21163;-61
2022/10/14 09:39:11;;;;;;;1.75;1.65;;;14.00;63.30;;;;;;5023812;28;20037;-60
2022/10/14 09:41:38;;;;;;;1.30;1.20;;;14.00;63.00;;;;;;5030883;28;20078;-59
2022/10/14 09:44:20;;;;;;;1.60;1.50;;;14.00;62.80;;;;;;5026699;28;20040;-61
2022/10/14 09:46:56;;;;;;;1.40;1.30;;;14.00;62.60;;;;;;5023864;28;20044;-59
2022/10/14 09:49:47;;;;;;;1.33;1.17;;;14.00;62.40;;;;;;5023209;28;20040;-61
2022/10/14 09:52:24;;;;;;;0.98;0.98;;;13.90;62.00;;;;;;5018783;28;20393;-58
2022/10/14 09:55:00;;;;;;;1.10;1.10;;;13.90;62.00;;;;;;5024050;28;20037;-59
2022/10/14 09:57:26;;;;;;;1.42;1.33;;;13.90;62.10;;;;;;5032535;28;20505;-58
2022/10/14 10:00:02;;;;;;;2.80;1.40;;;13.90;62.30;;;;;;5030460;28;20043;-59
2022/10/14 10:02:41;;;;;;;1.50;1.40;;;14.00;62.20;;;;;;5027396;28;20035;-60
2022/10/14 10:05:25;;;;;;;1.45;1.35;;;14.00;61.90;;;;;;5031380;28;20098;-59
2022/10/14 10:08:00;;;;;;;1.40;1.30;;;14.00;61.90;;;;;;5023305;28;20485;-58
2022/10/14 10:10:29;;;;;;;1.52;1.42;;;14.00;61.80;;;;;;5023166;28;20118;-57
2022/10/14 10:12:55;;;;;;;1.35;1.30;;;14.10;62.00;;;;;;5021709;28;20056;-58
2022/10/14 10:15:21;;;;;;;1.13;1.02;;;14.10;61.80;;;;;;5022311;28;20610;-60
2022/10/14 10:17:48;;;;;;;0.80;0.80;;;14.10;61.70;;;;;;5035301;28;20115;-61
2022/10/14 10:20:15;;;;;;;1.23;1.05;;;14.20;61.60;;;;;;5025776;28;20404;-58
2022/10/14 10:22:41;;;;;;;1.05;1.00;;;14.20;61.50;;;;;;5011512;28;21706;-60
2022/10/14 10:25:07;;;;;;;1.15;1.10;;;14.20;61.60;;;;;;5034223;28;20025;-59
2022/10/14 10:27:35;;;;;;;1.13;1.10;;;14.20;61.40;;;;;;5032523;28;20029;-58
2022/10/14 10:30:16;;;;;;;1.20;1.02;;;14.20;61.30;;;;;;5027299;28;20116;-60
2022/10/14 10:32:45;;;;;;;1.20;1.20;;;14.20;61.30;;;;;;5007153;28;20049;-61
2022/10/14 10:35:27;;;;;;;1.17;1.10;;;14.20;61.00;;;;;;5002599;28;20036;-59
2022/10/14 10:37:55;;;;;;;1.23;1.10;;;14.20;60.80;;;;;;5008139;28;20492;-60
2022/10/14 10:41:02;;;;;;;1.35;1.27;;;14.30;60.80;;;;;;5008538;28;20043;-59
2022/10/14 10:43:48;;;;;;;0.77;0.77;;;14.30;60.70;;;;;;4979341;28;20048;-60
2022/10/14 10:46:32;;;;;;;1.20;1.10;;;14.30;60.90;;;;;;5014293;28;20057;-59
2022/10/14 10:49:16;;;;;;;0.80;0.80;;;14.30;60.80;;;;;;5017046;28;20116;-58
2022/10/14 10:51:57;;;;;;;0.98;0.98;;;14.30;60.80;;;;;;5009862;28;20025;-60
2022/10/14 10:54:43;;;;;;;1.40;1.00;;;14.30;60.60;;;;;;5019316;28;20083;-59
2022/10/14 10:57:17;;;;;;;0.98;0.90;;;14.30;60.50;;;;;;5012562;28;20173;-59
2022/10/14 10:59:57;;;;;;;1.40;1.30;;;14.30;60.50;;;;;;5013643;28;20033;-58
2022/10/14 11:02:38;;;;;;;1.85;1.13;;;14.30;60.40;;;;;;5010794;28;20037;-59
2022/10/14 11:05:37;;;;;;;1.10;1.10;;;14.30;60.50;;;;;;5009226;28;20032;-61
2022/10/14 11:14:25;;;;;;;0.80;0.80;;;14.30;60.20;;;;;;5004515;28;20068;-59
2022/10/14 11:17:02;;;;;;;0.90;0.90;;;14.30;60.10;;;;;;5018815;28;20030;-59
2022/10/14 11:19:46;;;;;;;0.90;0.90;;;14.30;60.00;;;;;;5010249;28;20411;-60
2022/10/14 11:22:37;;;;;;;0.70;0.70;;;14.30;60.00;;;;;;5014897;28;20068;-59
2022/10/14 11:25:24;;;;;;;1.13;1.10;;;14.30;59.90;;;;;;5014653;28;20385;-58
2022/10/14 11:28:09;;;;;;;2.00;1.13;;;14.30;59.90;;;;;;5006975;28;20754;-60
2022/10/14 11:30:52;;;;;;;1.13;1.00;;;14.30;59.90;;;;;;5010328;28;20158;-59
2022/10/14 11:33:55;;;;;;;1.40;1.30;;;14.30;59.70;;;;;;5007533;28;20579;-59
2022/10/14 11:36:45;;;;;;;1.67;1.00;;;14.30;59.60;;;;;;5003715;28;20037;-59
2022/10/14 11:39:33;;;;;;;1.02;1.02;;;14.30;59.60;;;;;;5008588;28;20496;-60
2022/10/14 11:42:23;;;;;;;1.00;1.00;;;14.30;59.50;;;;;;5004753;28;20037;-59
2022/10/14 11:45:05;;;;;;;1.00;1.00;;;14.30;59.70;;;;;;5008350;28;20100;-59
2022/10/14 11:47:34;;;;;;;1.52;1.42;;;14.30;59.30;;;;;;5012055;28;20408;-58
2022/10/14 11:50:10;;;;;;;1.02;1.02;;;14.20;59.10;;;;;;5003317;28;20025;-59
2022/10/14 11:53:00;;;;;;;1.58;1.48;;;14.20;59.10;;;;;;5001248;28;20026;-60
2022/10/14 11:55:31;;;;;;;0.95;0.95;;;14.20;59.20;;;;;;5012842;28;20042;-58
2022/10/14 11:58:09;;;;;;;1.17;1.08;;;14.20;59.20;;;;;;5027072;28;20556;-60
2022/10/14 12:00:54;;;;;;;1.25;1.20;;;14.20;59.20;;;;;;5004006;28;20036;-60
2022/10/14 12:03:22;;;;;;;1.40;1.30;;;14.20;59.20;;;;;;5015203;28;20025;-60
2022/10/14 12:05:58;;;;;;;0.98;0.98;;;14.20;59.20;;;;;;5006305;28;20029;-60
2022/10/14 12:08:31;;;;;;;1.02;1.02;;;14.20;59.20;;;;;;5010215;28;20022;-59
2022/10/14 12:11:34;;;;;;;0.93;0.93;;;14.20;59.20;;;;;;5002959;28;20041;-59
2022/10/14 12:14:24;;;;;;;1.92;1.00;;;14.10;58.80;;;;;;4989930;28;20144;-59
2022/10/14 12:16:51;;;;;;;1.42;1.17;;;14.10;58.90;;;;;;5006311;28;20037;-59
2022/10/14 12:19:24;;;;;;;0.98;0.95;;;14.10;58.90;;;;;;5004258;28;20543;-58
2022/10/14 12:22:01;;;;;;;1.23;0.90;;;14.00;58.70;;;;;;5004846;28;20048;-60
2022/10/14 12:24:37;;;;;;;1.02;1.02;;;14.00;58.80;;;;;;5006173;28;20626;-60
2022/10/14 12:27:08;;;;;;;0.90;0.90;;;14.00;58.70;;;;;;5005251;28;20112;-61
2022/10/14 12:29:41;;;;;;;1.15;1.05;;;14.00;58.80;;;;;;5007841;28;20357;-60
2022/10/14 12:32:18;;;;;;;0.90;0.90;;;14.00;58.90;;;;;;5023079;28;20049;-60
2022/10/14 12:34:49;;;;;;;0.80;0.80;;;14.00;58.90;;;;;;5026558;28;20025;-59
2022/10/14 12:37:24;;;;;;;0.88;0.88;;;14.00;58.70;;;;;;5026163;28;20033;-60
2022/10/14 12:39:51;;;;;;;1.08;0.98;;;14.00;58.70;;;;;;5030317;28;20115;-60
2022/10/14 12:42:18;;;;;;;0.80;0.80;;;14.00;58.80;;;;;;5030335;28;20053;-60
2022/10/14 12:44:54;;;;;;;1.15;1.10;;;14.00;58.90;;;;;;5029586;28;20633;-59
2022/10/14 12:47:36;;;;;;;1.80;1.30;;;14.00;58.90;;;;;;5023454;28;20087;-59
2022/10/14 12:50:26;;;;;;;1.27;1.17;;;14.00;58.90;;;;;;5031803;28;20510;-60
2022/10/14 12:53:01;;;;;;;1.30;1.23;;;14.00;58.60;;;;;;5031228;28;20043;-58
2022/10/14 12:55:30;;;;;;;1.08;1.05;;;14.00;58.70;;;;;;5031658;28;20034;-60
2022/10/14 12:57:59;;;;;;;0.90;0.90;;;14.00;58.80;;;;;;5026725;28;20028;-59
2022/10/14 13:00:25;;;;;;;1.38;0.70;;;14.00;58.80;;;;;;5031813;28;20071;-58
2022/10/14 13:02:58;;;;;;;0.80;0.77;;;14.00;58.80;;;;;;5035097;28;20489;-60
2022/10/14 13:05:42;;;;;;;0.90;0.90;;;14.00;58.60;;;;;;5031196;28;20053;-59
2022/10/14 13:08:19;;;;;;;0.73;0.73;;;14.10;58.50;;;;;;5029733;28;20102;-59
2022/10/14 13:10:47;;;;;;;0.75;0.75;;;14.10;58.40;;;;;;5034055;28;20025;-59
2022/10/14 13:13:58;;;;;;;0.98;0.93;;;14.00;58.30;;;;;;5040375;28;20560;-57